Catalina Flyer — WTD8887 — position and weather

sailwx.info

Track history (hours):
 
Tides and Currents Weather Stations Pressure Air Temp Water Temp Dewpoint Dewpoint Depression Visibility Wind Speed Wind Dir Waves Ship Positions

Catalina Flyer

Owner: CATALINA PASSENGER SERVICE INC, BALBOA, CA. More information available from US FCC via Universal Licensing System and Coast Guard Vessel Documentation Center.

Last reported at 2018-Jun-18 00:33 UTC. Time now 2018-Jun-18 13:14 UTC.
Position N 33°34' W 117°54'.

Length 36 m; draft 2.5 m.

Type: Passenger vessel. MMSI: 367001740.

Date/timePositionNaut miles runAvg speedWind from/ knotsBaromVisibWave heightAir tempDewpointWater temp
2018-Jun-18 00:33N 33°34' W 117°54'125.0
2018-Jun-18 00:30N 33°34' W 117°55'1 0.3
2018-Jun-17 20:20N 33°34' W 117°56'926.4
2018-Jun-17 20:01N 33°32' W 118°06'12 0.6
2018-Jun-17 00:38N 33°35' W 117°53'324.8
2018-Jun-17 00:30N 33°34' W 117°56'15 2.1
2018-Jun-16 17:09N 33°25' W 118°11'423.7
2018-Jun-16 16:59N 33°28' W 118°07'1223.4
2018-Jun-16 16:28N 33°34' W 117°55'2 0.1
2018-Jun-16 00:38N 33°35' W 117°53'324.6
2018-Jun-16 00:30N 33°33' W 117°56'2224.4
2018-Jun-15 23:36N 33°21' W 118°18'1 7.5
2018-Jun-15 23:28N 33°21' W 118°19'0 0.0
2018-Jun-15 22:56N 33°21' W 118°19'918.9
2018-Jun-15 22:26N 33°27' W 118°28'1 0.6
2018-Jun-15 21:26N 33°27' W 118°27'1125.7
2018-Jun-15 21:00N 33°30' W 118°14'1325.2
2018-Jun-15 20:29N 33°33' W 117°59'6 3.9
2018-Jun-15 19:01N 33°35' W 117°53'019.5
2018-Jun-15 19:00N 33°35' W 117°53'1427.2
2018-Jun-15 18:30N 33°27' W 118°07'1322.7
2018-Jun-15 17:57N 33°21' W 118°19'5 7.4
2018-Jun-15 17:18N 33°23' W 118°15'923.7
2018-Jun-15 16:55N 33°28' W 118°06'13 0.8
2018-Jun-15 00:50N 33°36' W 117°54'2 7.0
2018-Jun-15 00:30N 33°34' W 117°55'1425.9
2018-Jun-14 23:58N 33°28' W 118°09'1123.0
2018-Jun-14 23:30N 33°21' W 118°19'0 0.0
2018-Jun-14 23:00N 33°21' W 118°19'0 0.2
2018-Jun-14 22:31N 33°21' W 118°19'0 0.0
2018-Jun-14 21:58N 33°21' W 118°19'0 0.0
2018-Jun-14 20:46N 33°21' W 118°19'0 0.0
2018-Jun-14 20:25N 33°21' W 118°19'0 0.0
2018-Jun-14 19:58N 33°21' W 118°19'0 0.1
2018-Jun-14 19:29N 33°21' W 118°19'0 0.1
2018-Jun-14 19:00N 33°21' W 118°19'0 0.1
2018-Jun-14 17:53N 33°21' W 118°19'1 2.5
2018-Jun-14 17:27N 33°22' W 118°19'1224.5
2018-Jun-14 16:58N 33°28' W 118°07'1124.3
2018-Jun-14 16:30N 33°34' W 117°55'2 0.2
2018-Jun-14 01:11N 33°36' W 117°54'0 0.1
2018-Jun-14 01:00N 33°36' W 117°54'713.0
2018-Jun-14 00:30N 33°32' W 117°60'1325.9
2018-Jun-13 23:59N 33°24' W 118°13'613.3
2018-Jun-13 23:30N 33°21' W 118°19'0 0.0
2018-Jun-13 21:17N 33°21' W 118°19'0 0.0
2018-Jun-13 21:00N 33°21' W 118°19'0 0.0
2018-Jun-13 20:30N 33°21' W 118°19'0 0.0
2018-Jun-13 19:21N 33°21' W 118°19'0 0.0
2018-Jun-13 19:00N 33°21' W 118°19'0 0.1
2018-Jun-13 17:49N 33°21' W 118°19'1916.9
2018-Jun-13 16:40N 33°31' W 117°60'425.1
2018-Jun-13 16:30N 33°34' W 117°56'3 0.2
2018-Jun-13 00:45N 33°36' W 117°53'311.5
2018-Jun-13 00:30N 33°34' W 117°55'1625.4
2018-Jun-12 23:53N 33°25' W 118°11'821.3
2018-Jun-12 23:30N 33°21' W 118°19'0 0.0
2018-Jun-12 23:00N 33°21' W 118°19'0 0.2
2018-Jun-12 22:30N 33°21' W 118°19'0 0.0
2018-Jun-12 22:00N 33°21' W 118°19'0 0.1
2018-Jun-12 21:30N 33°21' W 118°19'0 0.0
2018-Jun-12 21:01N 33°21' W 118°19'0 0.0
2018-Jun-12 20:26N 33°21' W 118°19'0 0.0
2018-Jun-12 19:54N 33°21' W 118°19'0 0.0
2018-Jun-12 19:16N 33°21' W 118°19'0 0.0
2018-Jun-12 18:50N 33°21' W 118°19'0 0.1
2018-Jun-12 17:56N 33°21' W 118°19'1 2.0
2018-Jun-12 17:26N 33°22' W 118°19'25 1.5
2018-Jun-12 01:04N 33°36' W 117°54'0 2.0
2018-Jun-12 00:50N 33°36' W 117°53'413.0
2018-Jun-12 00:30N 33°33' W 117°57'1325.4
2018-Jun-12 00:00N 33°26' W 118°10'1019.5
2018-Jun-11 23:30N 33°21' W 118°19'0 0.0
2018-Jun-11 23:00N 33°21' W 118°19'0 0.0
2018-Jun-11 18:11N 33°21' W 118°19'0 0.3
2018-Jun-11 18:00N 33°21' W 118°19'26 1.6
2018-Jun-11 01:08N 33°36' W 117°54'0 2.0
2018-Jun-11 00:55N 33°36' W 117°53'716.0
2018-Jun-11 00:30N 33°31' W 117°59'1224.8
2018-Jun-11 00:01N 33°25' W 118°12'815.1
2018-Jun-10 23:30N 33°21' W 118°19'0 0.3
2018-Jun-10 23:00N 33°21' W 118°19'1223.2
2018-Jun-10 22:29N 33°27' W 118°07'1412.1
2018-Jun-10 21:20N 33°36' W 117°54'1 3.3
2018-Jun-10 20:54N 33°35' W 117°53'1026.3
2018-Jun-10 20:31N 33°32' W 118°05'1324.4
2018-Jun-10 19:59N 33°29' W 118°20'9 7.0
2018-Jun-10 18:42N 33°27' W 118°30'412.3
2018-Jun-10 18:20N 33°26' W 118°25'27 1.6
2018-Jun-10 00:51N 33°36' W 117°54'3 7.6
2018-Jun-10 00:30N 33°34' W 117°55'1325.1
2018-Jun-10 00:01N 33°27' W 118°08'1214.8
2018-Jun-09 23:14N 33°21' W 118°19'0 0.0
2018-Jun-09 23:00N 33°21' W 118°19'0 0.1
2018-Jun-09 22:21N 33°21' W 118°19'13 2.3
2018-Jun-09 16:52N 33°28' W 118°06'924.1
2018-Jun-09 16:30N 33°32' W 117°58'5 0.3
2018-Jun-09 00:52N 33°36' W 117°54'3 7.9
2018-Jun-09 00:30N 33°33' W 117°55'1326.0
2018-Jun-09 00:00N 33°27' W 118°08'1110.2
2018-Jun-08 22:56N 33°21' W 118°19'613.5
2018-Jun-08 22:31N 33°25' W 118°23'6 5.9
2018-Jun-08 21:34N 33°27' W 118°30'114.5
2018-Jun-08 21:30N 33°27' W 118°29'1325.9
2018-Jun-08 21:00N 33°30' W 118°13'16 7.6
2018-Jun-08 18:53N 33°34' W 117°55'1327.8
2018-Jun-08 18:25N 33°27' W 118°08'1010.7
2018-Jun-08 17:28N 33°21' W 118°18'  
Track history (hours):
 
Tides and Currents Weather Stations Pressure Air Temp Water Temp Dewpoint Dewpoint Depression Visibility Wind Speed Wind Dir Waves Ship Positions

Catalina Flyer

Owner: CATALINA PASSENGER SERVICE INC, BALBOA, CA. More information available from US FCC via Universal Licensing System and Coast Guard Vessel Documentation Center.

Last reported at 2018-Jun-18 00:33 UTC. Time now 2018-Jun-18 13:14 UTC.
Position N 33°34' W 117°54'.

Length 36 m; draft 2.5 m.

Type: Passenger vessel. MMSI: 367001740.

Date/timePositionNaut miles runAvg speedWind from/ knotsBaromVisibWave heightAir tempDewpointWater temp
2018-Jun-18 00:33N 33°34' W 117°54'125.0
2018-Jun-18 00:30N 33°34' W 117°55'1 0.3
2018-Jun-17 20:20N 33°34' W 117°56'926.4
2018-Jun-17 20:01N 33°32' W 118°06'12 0.6
2018-Jun-17 00:38N 33°35' W 117°53'324.8
2018-Jun-17 00:30N 33°34' W 117°56'15 2.1
2018-Jun-16 17:09N 33°25' W 118°11'423.7
2018-Jun-16 16:59N 33°28' W 118°07'1223.4
2018-Jun-16 16:28N 33°34' W 117°55'2 0.1
2018-Jun-16 00:38N 33°35' W 117°53'324.6
2018-Jun-16 00:30N 33°33' W 117°56'2224.4
2018-Jun-15 23:36N 33°21' W 118°18'1 7.5
2018-Jun-15 23:28N 33°21' W 118°19'0 0.0
2018-Jun-15 22:56N 33°21' W 118°19'918.9
2018-Jun-15 22:26N 33°27' W 118°28'1 0.6
2018-Jun-15 21:26N 33°27' W 118°27'1125.7
2018-Jun-15 21:00N 33°30' W 118°14'1325.2
2018-Jun-15 20:29N 33°33' W 117°59'6 3.9
2018-Jun-15 19:01N 33°35' W 117°53'019.5
2018-Jun-15 19:00N 33°35' W 117°53'1427.2
2018-Jun-15 18:30N 33°27' W 118°07'1322.7
2018-Jun-15 17:57N 33°21' W 118°19'5 7.4
2018-Jun-15 17:18N 33°23' W 118°15'923.7
2018-Jun-15 16:55N 33°28' W 118°06'13 0.8
2018-Jun-15 00:50N 33°36' W 117°54'2 7.0
2018-Jun-15 00:30N 33°34' W 117°55'1425.9
2018-Jun-14 23:58N 33°28' W 118°09'1123.0
2018-Jun-14 23:30N 33°21' W 118°19'0 0.0
2018-Jun-14 23:00N 33°21' W 118°19'0 0.2
2018-Jun-14 22:31N 33°21' W 118°19'0 0.0
2018-Jun-14 21:58N 33°21' W 118°19'0 0.0
2018-Jun-14 20:46N 33°21' W 118°19'0 0.0
2018-Jun-14 20:25N 33°21' W 118°19'0 0.0
2018-Jun-14 19:58N 33°21' W 118°19'0 0.1
2018-Jun-14 19:29N 33°21' W 118°19'0 0.1
2018-Jun-14 19:00N 33°21' W 118°19'0 0.1
2018-Jun-14 17:53N 33°21' W 118°19'1 2.5
2018-Jun-14 17:27N 33°22' W 118°19'1224.5
2018-Jun-14 16:58N 33°28' W 118°07'1124.3
2018-Jun-14 16:30N 33°34' W 117°55'2 0.2
2018-Jun-14 01:11N 33°36' W 117°54'0 0.1
2018-Jun-14 01:00N 33°36' W 117°54'713.0
2018-Jun-14 00:30N 33°32' W 117°60'1325.9
2018-Jun-13 23:59N 33°24' W 118°13'613.3
2018-Jun-13 23:30N 33°21' W 118°19'0 0.0
2018-Jun-13 21:17N 33°21' W 118°19'0 0.0
2018-Jun-13 21:00N 33°21' W 118°19'0 0.0
2018-Jun-13 20:30N 33°21' W 118°19'0 0.0
2018-Jun-13 19:21N 33°21' W 118°19'0 0.0
2018-Jun-13 19:00N 33°21' W 118°19'0 0.1
2018-Jun-13 17:49N 33°21' W 118°19'1916.9
2018-Jun-13 16:40N 33°31' W 117°60'425.1
2018-Jun-13 16:30N 33°34' W 117°56'3 0.2
2018-Jun-13 00:45N 33°36' W 117°53'311.5
2018-Jun-13 00:30N 33°34' W 117°55'1625.4
2018-Jun-12 23:53N 33°25' W 118°11'821.3
2018-Jun-12 23:30N 33°21' W 118°19'0 0.0
2018-Jun-12 23:00N 33°21' W 118°19'0 0.2
2018-Jun-12 22:30N 33°21' W 118°19'0 0.0
2018-Jun-12 22:00N 33°21' W 118°19'0 0.1
2018-Jun-12 21:30N 33°21' W 118°19'0 0.0
2018-Jun-12 21:01N 33°21' W 118°19'0 0.0
2018-Jun-12 20:26N 33°21' W 118°19'0 0.0
2018-Jun-12 19:54N 33°21' W 118°19'0 0.0
2018-Jun-12 19:16N 33°21' W 118°19'0 0.0
2018-Jun-12 18:50N 33°21' W 118°19'0 0.1
2018-Jun-12 17:56N 33°21' W 118°19'1 2.0
2018-Jun-12 17:26N 33°22' W 118°19'25 1.5
2018-Jun-12 01:04N 33°36' W 117°54'0 2.0
2018-Jun-12 00:50N 33°36' W 117°53'413.0
2018-Jun-12 00:30N 33°33' W 117°57'1325.4
2018-Jun-12 00:00N 33°26' W 118°10'1019.5
2018-Jun-11 23:30N 33°21' W 118°19'0 0.0
2018-Jun-11 23:00N 33°21' W 118°19'0 0.0
2018-Jun-11 18:11N 33°21' W 118°19'0 0.3
2018-Jun-11 18:00N 33°21' W 118°19'26 1.6
2018-Jun-11 01:08N 33°36' W 117°54'0 2.0
2018-Jun-11 00:55N 33°36' W 117°53'716.0
2018-Jun-11 00:30N 33°31' W 117°59'1224.8
2018-Jun-11 00:01N 33°25' W 118°12'815.1
2018-Jun-10 23:30N 33°21' W 118°19'0 0.3
2018-Jun-10 23:00N 33°21' W 118°19'1223.2
2018-Jun-10 22:29N 33°27' W 118°07'1412.1
2018-Jun-10 21:20N 33°36' W 117°54'1 3.3
2018-Jun-10 20:54N 33°35' W 117°53'1026.3
2018-Jun-10 20:31N 33°32' W 118°05'1324.4
2018-Jun-10 19:59N 33°29' W 118°20'9 7.0
2018-Jun-10 18:42N 33°27' W 118°30'412.3
2018-Jun-10 18:20N 33°26' W 118°25'27 1.6
2018-Jun-10 00:51N 33°36' W 117°54'3 7.6
2018-Jun-10 00:30N 33°34' W 117°55'1325.1
2018-Jun-10 00:01N 33°27' W 118°08'1214.8
2018-Jun-09 23:14N 33°21' W 118°19'0 0.0
2018-Jun-09 23:00N 33°21' W 118°19'0 0.1
2018-Jun-09 22:21N 33°21' W 118°19'13 2.3
2018-Jun-09 16:52N 33°28' W 118°06'924.1
2018-Jun-09 16:30N 33°32' W 117°58'5 0.3
2018-Jun-09 00:52N 33°36' W 117°54'3 7.9
2018-Jun-09 00:30N 33°33' W 117°55'1326.0
2018-Jun-09 00:00N 33°27' W 118°08'1110.2
2018-Jun-08 22:56N 33°21' W 118°19'613.5
2018-Jun-08 22:31N 33°25' W 118°23'6 5.9
2018-Jun-08 21:34N 33°27' W 118°30'114.5
2018-Jun-08 21:30N 33°27' W 118°29'1325.9
2018-Jun-08 21:00N 33°30' W 118°13'16 7.6
2018-Jun-08 18:53N 33°34' W 117°55'1327.8
2018-Jun-08 18:25N 33°27' W 118°08'1010.7
2018-Jun-08 17:28N 33°21' W 118°18'  

Dump ship's entire track history